sensor_id;sensor_type;location;lat;lon;timestamp;temperature;humidity
23124;DHT22;11731;48.592;8.858;2022-09-25T00:01:42;15.00;99.90
23124;DHT22;11731;48.592;8.858;2022-09-25T00:04:11;14.70;99.90
23124;DHT22;11731;48.592;8.858;2022-09-25T00:06:38;14.90;99.90
23124;DHT22;11731;48.592;8.858;2022-09-25T00:09:05;15.00;99.90
23124;DHT22;11731;48.592;8.858;2022-09-25T00:11:33;14.90;99.90
23124;DHT22;11731;48.592;8.858;2022-09-25T00:14:03;14.50;99.90
23124;DHT22;11731;48.592;8.858;2022-09-25T00:16:30;14.70;99.90
23124;DHT22;11731;48.592;8.858;2022-09-25T00:18:58;14.80;99.90
23124;DHT22;11731;48.592;8.858;2022-09-25T00:21:44;14.70;99.90
23124;DHT22;11731;48.592;8.858;2022-09-25T00:24:18;14.40;99.90
23124;DHT22;11731;48.592;8.858;2022-09-25T00:26:45;14.60;99.90
23124;DHT22;11731;48.592;8.858;2022-09-25T00:29:14;14.90;99.90
23124;DHT22;11731;48.592;8.858;2022-09-25T00:31:41;15.20;99.90
23124;DHT22;11731;48.592;8.858;2022-09-25T00:34:09;15.40;99.90
23124;DHT22;11731;48.592;8.858;2022-09-25T00:36:36;15.50;99.90
23124;DHT22;11731;48.592;8.858;2022-09-25T00:39:05;15.40;99.90
23124;DHT22;11731;48.592;8.858;2022-09-25T00:41:33;15.40;99.90
23124;DHT22;11731;48.592;8.858;2022-09-25T00:44:02;15.10;99.90
23124;DHT22;11731;48.592;8.858;2022-09-25T00:46:31;15.20;99.90
23124;DHT22;11731;48.592;8.858;2022-09-25T00:49:02;15.10;99.90
23124;DHT22;11731;48.592;8.858;2022-09-25T00:51:33;15.00;99.90
23124;DHT22;11731;48.592;8.858;2022-09-25T00:54:05;14.80;99.90
23124;DHT22;11731;48.592;8.858;2022-09-25T00:56:37;15.10;99.90
23124;DHT22;11731;48.592;8.858;2022-09-25T00:59:10;15.10;99.90
23124;DHT22;11731;48.592;8.858;2022-09-25T01:01:38;14.90;99.90
23124;DHT22;11731;48.592;8.858;2022-09-25T01:04:06;14.80;99.90
23124;DHT22;11731;48.592;8.858;2022-09-25T01:06:34;15.00;99.90
23124;DHT22;11731;48.592;8.858;2022-09-25T01:09:01;15.00;99.90
23124;DHT22;11731;48.592;8.858;2022-09-25T01:11:30;15.10;99.90
23124;DHT22;11731;48.592;8.858;2022-09-25T01:14:00;15.20;99.90
23124;DHT22;11731;48.592;8.858;2022-09-25T01:16:34;14.80;99.90
23124;DHT22;11731;48.592;8.858;2022-09-25T01:19:11;14.60;99.90
23124;DHT22;11731;48.592;8.858;2022-09-25T01:21:43;14.40;99.90
23124;DHT22;11731;48.592;8.858;2022-09-25T01:24:36;14.10;99.90
23124;DHT22;11731;48.592;8.858;2022-09-25T01:27:32;14.00;99.90
23124;DHT22;11731;48.592;8.858;2022-09-25T01:30:06;14.50;99.90
23124;DHT22;11731;48.592;8.858;2022-09-25T01:32:42;14.60;99.90
23124;DHT22;11731;48.592;8.858;2022-09-25T01:35:15;14.90;99.90
23124;DHT22;11731;48.592;8.858;2022-09-25T01:37:46;15.10;99.90
23124;DHT22;11731;48.592;8.858;2022-09-25T01:40:22;15.20;99.90
23124;DHT22;11731;48.592;8.858;2022-09-25T01:42:53;15.20;99.90
23124;DHT22;11731;48.592;8.858;2022-09-25T01:45:28;15.00;99.90
23124;DHT22;11731;48.592;8.858;2022-09-25T01:47:58;14.90;99.90
23124;DHT22;11731;48.592;8.858;2022-09-25T01:50:31;14.80;99.90
23124;DHT22;11731;48.592;8.858;2022-09-25T01:53:04;14.90;99.90
23124;DHT22;11731;48.592;8.858;2022-09-25T01:55:35;15.00;99.90
23124;DHT22;11731;48.592;8.858;2022-09-25T01:58:09;15.00;99.90
23124;DHT22;11731;48.592;8.858;2022-09-25T02:00:40;15.20;99.90
23124;DHT22;11731;48.592;8.858;2022-09-25T02:03:11;15.40;99.90
23124;DHT22;11731;48.592;8.858;2022-09-25T02:05:42;15.50;99.90
23124;DHT22;11731;48.592;8.858;2022-09-25T02:08:14;15.40;99.90
23124;DHT22;11731;48.592;8.858;2022-09-25T02:10:47;15.50;99.90
23124;DHT22;11731;48.592;8.858;2022-09-25T02:13:18;15.50;99.90
23124;DHT22;11731;48.592;8.858;2022-09-25T02:15:51;15.50;99.90
23124;DHT22;11731;48.592;8.858;2022-09-25T02:18:20;15.10;99.90
23124;DHT22;11731;48.592;8.858;2022-09-25T02:21:13;14.60;99.90
23124;DHT22;11731;48.592;8.858;2022-09-25T02:23:46;14.30;99.90
23124;DHT22;11731;48.592;8.858;2022-09-25T02:26:19;14.40;99.90
23124;DHT22;11731;48.592;8.858;2022-09-25T02:28:48;14.40;99.90
23124;DHT22;11731;48.592;8.858;2022-09-25T02:31:22;14.50;99.90
23124;DHT22;11731;48.592;8.858;2022-09-25T02:33:50;14.80;99.90
23124;DHT22;11731;48.592;8.858;2022-09-25T02:36:19;14.80;99.90
23124;DHT22;11731;48.592;8.858;2022-09-25T02:38:47;14.90;99.90
23124;DHT22;11731;48.592;8.858;2022-09-25T02:41:18;15.10;99.90
23124;DHT22;11731;48.592;8.858;2022-09-25T02:43:55;15.00;99.90
23124;DHT22;11731;48.592;8.858;2022-09-25T02:46:30;15.10;99.90
23124;DHT22;11731;48.592;8.858;2022-09-25T02:49:13;14.80;99.90
23124;DHT22;11731;48.592;8.858;2022-09-25T02:51:47;14.90;99.90
23124;DHT22;11731;48.592;8.858;2022-09-25T02:54:21;14.70;99.90
23124;DHT22;11731;48.592;8.858;2022-09-25T02:56:53;14.80;99.90
23124;DHT22;11731;48.592;8.858;2022-09-25T02:59:26;15.00;99.90
23124;DHT22;11731;48.592;8.858;2022-09-25T03:01:57;15.20;99.90
23124;DHT22;11731;48.592;8.858;2022-09-25T03:04:25;15.20;99.90
23124;DHT22;11731;48.592;8.858;2022-09-25T03:06:55;15.20;99.90
23124;DHT22;11731;48.592;8.858;2022-09-25T03:09:22;15.10;99.90
23124;DHT22;11731;48.592;8.858;2022-09-25T03:11:49;14.90;99.90
23124;DHT22;11731;48.592;8.858;2022-09-25T03:14:17;14.60;99.90
23124;DHT22;11731;48.592;8.858;2022-09-25T03:16:46;14.70;99.90
23124;DHT22;11731;48.592;8.858;2022-09-25T03:19:17;14.80;99.90
23124;DHT22;11731;48.592;8.858;2022-09-25T03:21:45;14.60;99.90
23124;DHT22;11731;48.592;8.858;2022-09-25T03:24:12;14.30;99.90
23124;DHT22;11731;48.592;8.858;2022-09-25T03:26:39;14.20;99.90
23124;DHT22;11731;48.592;8.858;2022-09-25T03:29:06;14.20;99.90
23124;DHT22;11731;48.592;8.858;2022-09-25T03:31:33;14.30;99.90
23124;DHT22;11731;48.592;8.858;2022-09-25T03:34:00;14.40;99.90
23124;DHT22;11731;48.592;8.858;2022-09-25T03:36:29;14.60;99.90
23124;DHT22;11731;48.592;8.858;2022-09-25T03:38:57;14.60;99.90
23124;DHT22;11731;48.592;8.858;2022-09-25T03:41:26;14.60;99.90
23124;DHT22;11731;48.592;8.858;2022-09-25T03:43:54;14.40;99.90
23124;DHT22;11731;48.592;8.858;2022-09-25T03:46:23;14.50;99.90
23124;DHT22;11731;48.592;8.858;2022-09-25T03:48:51;14.80;99.90
23124;DHT22;11731;48.592;8.858;2022-09-25T03:51:18;14.80;99.90
23124;DHT22;11731;48.592;8.858;2022-09-25T03:53:47;14.80;99.90
23124;DHT22;11731;48.592;8.858;2022-09-25T03:56:16;14.70;99.90
23124;DHT22;11731;48.592;8.858;2022-09-25T03:58:44;14.90;99.90
23124;DHT22;11731;48.592;8.858;2022-09-25T04:01:13;15.10;99.90
23124;DHT22;11731;48.592;8.858;2022-09-25T04:03:40;15.20;99.90
23124;DHT22;11731;48.592;8.858;2022-09-25T04:06:19;15.10;99.90
23124;DHT22;11731;48.592;8.858;2022-09-25T04:08:48;15.00;99.90
23124;DHT22;11731;48.592;8.858;2022-09-25T04:11:16;14.90;99.90
23124;DHT22;11731;48.592;8.858;2022-09-25T04:13:43;14.90;99.90
23124;DHT22;11731;48.592;8.858;2022-09-25T04:16:11;15.00;99.90
23124;DHT22;11731;48.592;8.858;2022-09-25T04:18:38;15.00;99.90
23124;DHT22;11731;48.592;8.858;2022-09-25T04:21:08;15.00;99.90
23124;DHT22;11731;48.592;8.858;2022-09-25T04:23:36;14.90;99.90
23124;DHT22;11731;48.592;8.858;2022-09-25T04:26:05;15.10;99.90
23124;DHT22;11731;48.592;8.858;2022-09-25T04:28:32;14.90;99.90
23124;DHT22;11731;48.592;8.858;2022-09-25T04:31:00;14.50;99.90
23124;DHT22;11731;48.592;8.858;2022-09-25T04:33:28;14.40;99.90
23124;DHT22;11731;48.592;8.858;2022-09-25T04:36:12;14.60;99.90
23124;DHT22;11731;48.592;8.858;2022-09-25T04:38:39;14.70;99.90
23124;DHT22;11731;48.592;8.858;2022-09-25T04:41:25;14.80;99.90
23124;DHT22;11731;48.592;8.858;2022-09-25T04:44:06;14.80;99.90
23124;DHT22;11731;48.592;8.858;2022-09-25T04:46:33;14.60;99.90
23124;DHT22;11731;48.592;8.858;2022-09-25T04:49:00;14.50;99.90
23124;DHT22;11731;48.592;8.858;2022-09-25T04:51:27;14.30;99.90
23124;DHT22;11731;48.592;8.858;2022-09-25T04:53:55;14.10;99.90
23124;DHT22;11731;48.592;8.858;2022-09-25T04:56:23;13.90;99.90
23124;DHT22;11731;48.592;8.858;2022-09-25T04:58:50;13.90;99.90
23124;DHT22;11731;48.592;8.858;2022-09-25T05:01:19;14.00;99.90
23124;DHT22;11731;48.592;8.858;2022-09-25T05:03:47;13.90;99.90
23124;DHT22;11731;48.592;8.858;2022-09-25T05:06:14;13.90;99.90
23124;DHT22;11731;48.592;8.858;2022-09-25T05:08:48;14.20;99.90
23124;DHT22;11731;48.592;8.858;2022-09-25T05:11:18;14.50;99.90
23124;DHT22;11731;48.592;8.858;2022-09-25T05:13:49;14.50;99.90
23124;DHT22;11731;48.592;8.858;2022-09-25T05:16:16;14.60;99.90
23124;DHT22;11731;48.592;8.858;2022-09-25T05:18:43;14.70;99.90
23124;DHT22;11731;48.592;8.858;2022-09-25T05:21:10;14.60;99.90
23124;DHT22;11731;48.592;8.858;2022-09-25T05:23:37;14.60;99.90
23124;DHT22;11731;48.592;8.858;2022-09-25T05:26:04;14.60;99.90
23124;DHT22;11731;48.592;8.858;2022-09-25T05:28:31;14.60;99.90
23124;DHT22;11731;48.592;8.858;2022-09-25T05:31:00;14.50;99.90
23124;DHT22;11731;48.592;8.858;2022-09-25T05:33:28;14.50;99.90
23124;DHT22;11731;48.592;8.858;2022-09-25T05:35:58;14.70;99.90
23124;DHT22;11731;48.592;8.858;2022-09-25T05:38:25;14.70;99.90
23124;DHT22;11731;48.592;8.858;2022-09-25T05:40:53;14.80;99.90
23124;DHT22;11731;48.592;8.858;2022-09-25T05:43:21;14.60;99.90
23124;DHT22;11731;48.592;8.858;2022-09-25T05:45:52;14.60;99.90
23124;DHT22;11731;48.592;8.858;2022-09-25T05:48:21;14.50;99.90
23124;DHT22;11731;48.592;8.858;2022-09-25T05:50:50;14.70;99.90
23124;DHT22;11731;48.592;8.858;2022-09-25T05:53:17;14.70;99.90
23124;DHT22;11731;48.592;8.858;2022-09-25T05:55:48;14.80;99.90
23124;DHT22;11731;48.592;8.858;2022-09-25T05:58:15;14.80;99.90
23124;DHT22;11731;48.592;8.858;2022-09-25T06:01:02;14.90;99.90
23124;DHT22;11731;48.592;8.858;2022-09-25T06:03:31;14.90;99.90
23124;DHT22;11731;48.592;8.858;2022-09-25T06:05:59;14.50;99.90
23124;DHT22;11731;48.592;8.858;2022-09-25T06:08:27;14.50;99.90
23124;DHT22;11731;48.592;8.858;2022-09-25T06:10:56;14.60;99.90
23124;DHT22;11731;48.592;8.858;2022-09-25T06:13:23;14.50;99.90
23124;DHT22;11731;48.592;8.858;2022-09-25T06:15:51;14.40;99.90
23124;DHT22;11731;48.592;8.858;2022-09-25T06:18:19;14.40;99.90
23124;DHT22;11731;48.592;8.858;2022-09-25T06:20:48;14.70;99.90
23124;DHT22;11731;48.592;8.858;2022-09-25T06:23:18;14.40;99.90
23124;DHT22;11731;48.592;8.858;2022-09-25T06:25:45;14.20;99.90
23124;DHT22;11731;48.592;8.858;2022-09-25T06:28:12;14.30;99.90
23124;DHT22;11731;48.592;8.858;2022-09-25T06:30:39;14.50;99.90
23124;DHT22;11731;48.592;8.858;2022-09-25T06:33:09;14.40;99.90
23124;DHT22;11731;48.592;8.858;2022-09-25T06:35:40;14.10;99.90
23124;DHT22;11731;48.592;8.858;2022-09-25T06:38:09;13.90;99.90
23124;DHT22;11731;48.592;8.858;2022-09-25T06:40:36;14.00;99.90
23124;DHT22;11731;48.592;8.858;2022-09-25T06:43:06;14.20;99.90
23124;DHT22;11731;48.592;8.858;2022-09-25T06:48:09;14.20;99.90
23124;DHT22;11731;48.592;8.858;2022-09-25T06:50:48;14.30;99.90
23124;DHT22;11731;48.592;8.858;2022-09-25T06:53:29;14.30;99.90
23124;DHT22;11731;48.592;8.858;2022-09-25T06:55:56;14.10;99.90
23124;DHT22;11731;48.592;8.858;2022-09-25T06:58:24;14.00;99.90
23124;DHT22;11731;48.592;8.858;2022-09-25T07:00:53;14.10;99.90
23124;DHT22;11731;48.592;8.858;2022-09-25T07:03:21;14.00;99.90
23124;DHT22;11731;48.592;8.858;2022-09-25T07:06:06;13.90;99.90
23124;DHT22;11731;48.592;8.858;2022-09-25T07:08:34;14.10;99.90
23124;DHT22;11731;48.592;8.858;2022-09-25T07:11:02;14.20;99.90
23124;DHT22;11731;48.592;8.858;2022-09-25T07:13:32;14.30;99.90
23124;DHT22;11731;48.592;8.858;2022-09-25T07:16:00;14.60;99.90
23124;DHT22;11731;48.592;8.858;2022-09-25T07:18:28;14.90;99.90
23124;DHT22;11731;48.592;8.858;2022-09-25T07:20:59;14.90;99.90
23124;DHT22;11731;48.592;8.858;2022-09-25T07:23:27;14.90;99.90
23124;DHT22;11731;48.592;8.858;2022-09-25T07:26:03;15.10;99.90
23124;DHT22;11731;48.592;8.858;2022-09-25T07:28:30;15.10;99.90
23124;DHT22;11731;48.592;8.858;2022-09-25T07:30:57;15.00;99.90
23124;DHT22;11731;48.592;8.858;2022-09-25T07:33:23;14.90;99.90
23124;DHT22;11731;48.592;8.858;2022-09-25T07:35:50;14.90;99.90
23124;DHT22;11731;48.592;8.858;2022-09-25T07:38:17;15.10;99.90
23124;DHT22;11731;48.592;8.858;2022-09-25T07:40:44;15.30;99.90
23124;DHT22;11731;48.592;8.858;2022-09-25T07:43:27;15.30;99.90
23124;DHT22;11731;48.592;8.858;2022-09-25T07:45:54;15.00;99.90
23124;DHT22;11731;48.592;8.858;2022-09-25T07:48:21;15.00;99.90
23124;DHT22;11731;48.592;8.858;2022-09-25T07:50:49;15.20;99.90
23124;DHT22;11731;48.592;8.858;2022-09-25T07:53:20;15.20;99.90
23124;DHT22;11731;48.592;8.858;2022-09-25T07:55:47;15.20;99.90
23124;DHT22;11731;48.592;8.858;2022-09-25T07:58:15;15.30;99.90
23124;DHT22;11731;48.592;8.858;2022-09-25T08:00:45;15.50;99.90
23124;DHT22;11731;48.592;8.858;2022-09-25T08:03:12;15.50;99.90
23124;DHT22;11731;48.592;8.858;2022-09-25T08:05:39;15.50;99.90
23124;DHT22;11731;48.592;8.858;2022-09-25T08:08:13;15.60;99.90
23124;DHT22;11731;48.592;8.858;2022-09-25T08:10:51;15.60;99.90
23124;DHT22;11731;48.592;8.858;2022-09-25T08:13:18;15.80;99.90
23124;DHT22;11731;48.592;8.858;2022-09-25T08:15:47;15.90;99.90
23124;DHT22;11731;48.592;8.858;2022-09-25T08:18:14;16.00;99.90
23124;DHT22;11731;48.592;8.858;2022-09-25T08:20:41;15.70;99.90
23124;DHT22;11731;48.592;8.858;2022-09-25T08:23:08;15.70;99.90
23124;DHT22;11731;48.592;8.858;2022-09-25T08:25:35;15.60;99.90
23124;DHT22;11731;48.592;8.858;2022-09-25T08:28:10;15.60;99.90
23124;DHT22;11731;48.592;8.858;2022-09-25T08:30:40;15.70;99.90
23124;DHT22;11731;48.592;8.858;2022-09-25T08:33:12;15.40;99.90
23124;DHT22;11731;48.592;8.858;2022-09-25T08:35:42;15.70;99.90
23124;DHT22;11731;48.592;8.858;2022-09-25T08:38:10;15.70;99.90
23124;DHT22;11731;48.592;8.858;2022-09-25T08:40:41;15.70;99.90
23124;DHT22;11731;48.592;8.858;2022-09-25T08:43:15;15.90;99.90
23124;DHT22;11731;48.592;8.858;2022-09-25T08:45:45;16.20;99.90
23124;DHT22;11731;48.592;8.858;2022-09-25T08:48:35;15.90;99.90
23124;DHT22;11731;48.592;8.858;2022-09-25T08:51:20;16.00;99.90
23124;DHT22;11731;48.592;8.858;2022-09-25T08:53:48;15.90;99.90
23124;DHT22;11731;48.592;8.858;2022-09-25T08:56:15;16.00;99.90
23124;DHT22;11731;48.592;8.858;2022-09-25T08:58:47;16.20;99.90
23124;DHT22;11731;48.592;8.858;2022-09-25T09:01:23;16.30;99.90
23124;DHT22;11731;48.592;8.858;2022-09-25T09:06:55;16.90;99.90
23124;DHT22;11731;48.592;8.858;2022-09-25T09:09:28;16.70;99.90
23124;DHT22;11731;48.592;8.858;2022-09-25T09:12:13;16.20;99.90
23124;DHT22;11731;48.592;8.858;2022-09-25T09:14:45;16.10;99.90
23124;DHT22;11731;48.592;8.858;2022-09-25T09:17:15;16.10;99.90
23124;DHT22;11731;48.592;8.858;2022-09-25T09:20:11;16.20;99.90
23124;DHT22;11731;48.592;8.858;2022-09-25T09:22:45;16.40;99.90
23124;DHT22;11731;48.592;8.858;2022-09-25T09:25:24;16.90;99.90
23124;DHT22;11731;48.592;8.858;2022-09-25T09:28:24;17.00;99.90
23124;DHT22;11731;48.592;8.858;2022-09-25T09:30:59;17.40;99.90
23124;DHT22;11731;48.592;8.858;2022-09-25T09:33:39;17.40;99.90
23124;DHT22;11731;48.592;8.858;2022-09-25T09:36:15;17.10;99.90
23124;DHT22;11731;48.592;8.858;2022-09-25T09:39:03;17.00;99.90
23124;DHT22;11731;48.592;8.858;2022-09-25T09:41:42;17.20;99.90
23124;DHT22;11731;48.592;8.858;2022-09-25T09:44:37;17.50;99.90
23124;DHT22;11731;48.592;8.858;2022-09-25T09:47:21;17.80;99.90
23124;DHT22;11731;48.592;8.858;2022-09-25T09:49:53;17.60;99.90
23124;DHT22;11731;48.592;8.858;2022-09-25T09:52:28;17.50;99.90
23124;DHT22;11731;48.592;8.858;2022-09-25T09:55:00;17.30;99.90
23124;DHT22;11731;48.592;8.858;2022-09-25T09:57:31;17.50;99.90
23124;DHT22;11731;48.592;8.858;2022-09-25T10:00:02;17.60;99.90
23124;DHT22;11731;48.592;8.858;2022-09-25T10:02:32;17.00;99.90
23124;DHT22;11731;48.592;8.858;2022-09-25T10:05:10;17.20;99.90
23124;DHT22;11731;48.592;8.858;2022-09-25T10:07:42;17.20;99.90
23124;DHT22;11731;48.592;8.858;2022-09-25T10:10:14;17.50;99.90
23124;DHT22;11731;48.592;8.858;2022-09-25T10:13:07;17.70;99.90
23124;DHT22;11731;48.592;8.858;2022-09-25T10:15:41;17.60;99.90
23124;DHT22;11731;48.592;8.858;2022-09-25T10:18:10;17.80;99.90
23124;DHT22;11731;48.592;8.858;2022-09-25T10:20:41;18.00;99.90
23124;DHT22;11731;48.592;8.858;2022-09-25T10:24:44;18.20;99.90
23124;DHT22;11731;48.592;8.858;2022-09-25T10:26:37;18.20;99.90
23124;DHT22;11731;48.592;8.858;2022-09-25T10:31:57;18.20;99.90
23124;DHT22;11731;48.592;8.858;2022-09-25T10:34:24;18.40;99.90
23124;DHT22;11731;48.592;8.858;2022-09-25T10:36:53;18.20;99.90
23124;DHT22;11731;48.592;8.858;2022-09-25T10:39:33;18.50;99.90
23124;DHT22;11731;48.592;8.858;2022-09-25T10:42:33;18.40;99.90
23124;DHT22;11731;48.592;8.858;2022-09-25T10:45:14;18.20;99.90
23124;DHT22;11731;48.592;8.858;2022-09-25T10:47:42;18.10;99.90
23124;DHT22;11731;48.592;8.858;2022-09-25T10:50:28;18.00;99.90
23124;DHT22;11731;48.592;8.858;2022-09-25T10:52:56;18.20;99.90
23124;DHT22;11731;48.592;8.858;2022-09-25T11:00:30;18.50;99.90
23124;DHT22;11731;48.592;8.858;2022-09-25T11:03:02;18.50;99.90
23124;DHT22;11731;48.592;8.858;2022-09-25T11:05:33;18.10;99.90
23124;DHT22;11731;48.592;8.858;2022-09-25T11:08:02;18.00;99.90
23124;DHT22;11731;48.592;8.858;2022-09-25T11:10:32;17.80;99.90
23124;DHT22;11731;48.592;8.858;2022-09-25T11:13:02;18.00;99.90
23124;DHT22;11731;48.592;8.858;2022-09-25T11:15:34;18.00;99.90
23124;DHT22;11731;48.592;8.858;2022-09-25T11:18:35;18.00;99.90
23124;DHT22;11731;48.592;8.858;2022-09-25T11:21:04;18.30;99.90
23124;DHT22;11731;48.592;8.858;2022-09-25T11:23:34;18.30;99.90
23124;DHT22;11731;48.592;8.858;2022-09-25T11:26:07;18.50;99.90
23124;DHT22;11731;48.592;8.858;2022-09-25T11:28:40;18.30;99.90
23124;DHT22;11731;48.592;8.858;2022-09-25T11:31:17;18.30;99.90
23124;DHT22;11731;48.592;8.858;2022-09-25T11:33:51;18.20;99.90
23124;DHT22;11731;48.592;8.858;2022-09-25T11:36:23;18.50;99.90
23124;DHT22;11731;48.592;8.858;2022-09-25T11:38:55;17.90;99.90
23124;DHT22;11731;48.592;8.858;2022-09-25T11:41:43;17.30;99.90
23124;DHT22;11731;48.592;8.858;2022-09-25T11:44:26;17.30;99.90
23124;DHT22;11731;48.592;8.858;2022-09-25T11:47:01;17.40;99.90
23124;DHT22;11731;48.592;8.858;2022-09-25T11:49:32;17.90;99.90
23124;DHT22;11731;48.592;8.858;2022-09-25T11:52:28;18.10;99.90
23124;DHT22;11731;48.592;8.858;2022-09-25T11:55:35;18.20;99.90
23124;DHT22;11731;48.592;8.858;2022-09-25T11:58:16;18.00;99.90
23124;DHT22;11731;48.592;8.858;2022-09-25T12:00:53;17.90;99.90
23124;DHT22;11731;48.592;8.858;2022-09-25T12:03:33;17.90;99.90
23124;DHT22;11731;48.592;8.858;2022-09-25T12:06:24;18.00;99.90
23124;DHT22;11731;48.592;8.858;2022-09-25T12:09:12;17.90;99.90
23124;DHT22;11731;48.592;8.858;2022-09-25T12:11:48;17.90;99.90
23124;DHT22;11731;48.592;8.858;2022-09-25T12:14:25;17.50;99.90
23124;DHT22;11731;48.592;8.858;2022-09-25T12:16:58;17.30;99.90
23124;DHT22;11731;48.592;8.858;2022-09-25T12:19:35;17.20;99.90
23124;DHT22;11731;48.592;8.858;2022-09-25T12:22:07;17.50;99.90
23124;DHT22;11731;48.592;8.858;2022-09-25T12:24:47;17.10;99.90
23124;DHT22;11731;48.592;8.858;2022-09-25T12:27:21;17.00;99.90
23124;DHT22;11731;48.592;8.858;2022-09-25T12:30:06;17.30;99.90
23124;DHT22;11731;48.592;8.858;2022-09-25T12:33:05;17.70;99.90
23124;DHT22;11731;48.592;8.858;2022-09-25T12:35:44;17.90;99.90
23124;DHT22;11731;48.592;8.858;2022-09-25T12:38:22;18.10;99.90
23124;DHT22;11731;48.592;8.858;2022-09-25T12:40:57;17.60;99.90
23124;DHT22;11731;48.592;8.858;2022-09-25T12:43:30;17.70;99.90
23124;DHT22;11731;48.592;8.858;2022-09-25T12:46:08;18.10;99.90
23124;DHT22;11731;48.592;8.858;2022-09-25T12:48:42;18.20;99.90
23124;DHT22;11731;48.592;8.858;2022-09-25T12:51:13;18.40;99.90
23124;DHT22;11731;48.592;8.858;2022-09-25T12:53:45;18.00;99.90
23124;DHT22;11731;48.592;8.858;2022-09-25T12:56:16;17.70;99.90
23124;DHT22;11731;48.592;8.858;2022-09-25T12:58:53;18.00;99.90
23124;DHT22;11731;48.592;8.858;2022-09-25T13:01:28;18.20;99.90
23124;DHT22;11731;48.592;8.858;2022-09-25T13:04:05;18.20;99.90
23124;DHT22;11731;48.592;8.858;2022-09-25T13:07:03;18.50;99.90
23124;DHT22;11731;48.592;8.858;2022-09-25T13:09:45;18.20;99.90
23124;DHT22;11731;48.592;8.858;2022-09-25T13:12:29;18.20;99.90
23124;DHT22;11731;48.592;8.858;2022-09-25T13:15:03;18.70;99.90
23124;DHT22;11731;48.592;8.858;2022-09-25T13:17:31;18.80;99.90
23124;DHT22;11731;48.592;8.858;2022-09-25T13:23:05;18.30;99.90
23124;DHT22;11731;48.592;8.858;2022-09-25T13:25:48;17.70;99.90
23124;DHT22;11731;48.592;8.858;2022-09-25T13:28:25;17.40;99.90
23124;DHT22;11731;48.592;8.858;2022-09-25T13:31:20;17.60;99.90
23124;DHT22;11731;48.592;8.858;2022-09-25T13:33:49;17.60;99.90
23124;DHT22;11731;48.592;8.858;2022-09-25T13:36:33;17.70;99.90
23124;DHT22;11731;48.592;8.858;2022-09-25T13:39:04;17.90;99.90
23124;DHT22;11731;48.592;8.858;2022-09-25T13:41:52;18.00;99.90
23124;DHT22;11731;48.592;8.858;2022-09-25T13:44:46;18.30;99.90
23124;DHT22;11731;48.592;8.858;2022-09-25T13:50:24;18.50;99.90
23124;DHT22;11731;48.592;8.858;2022-09-25T13:53:00;18.30;99.90
23124;DHT22;11731;48.592;8.858;2022-09-25T13:59:36;18.50;99.90
23124;DHT22;11731;48.592;8.858;2022-09-25T14:02:32;18.60;99.90
23124;DHT22;11731;48.592;8.858;2022-09-25T14:05:04;18.70;99.90
23124;DHT22;11731;48.592;8.858;2022-09-25T14:07:31;18.20;99.90
23124;DHT22;11731;48.592;8.858;2022-09-25T14:09:59;18.10;99.90
23124;DHT22;11731;48.592;8.858;2022-09-25T14:12:34;18.20;99.90
23124;DHT22;11731;48.592;8.858;2022-09-25T14:15:13;18.20;99.90
23124;DHT22;11731;48.592;8.858;2022-09-25T14:17:43;17.90;99.90
23124;DHT22;11731;48.592;8.858;2022-09-25T14:20:31;18.30;99.90
23124;DHT22;11731;48.592;8.858;2022-09-25T14:23:02;18.40;99.90
23124;DHT22;11731;48.592;8.858;2022-09-25T14:25:31;18.80;99.90
23124;DHT22;11731;48.592;8.858;2022-09-25T14:28:03;19.00;99.90
23124;DHT22;11731;48.592;8.858;2022-09-25T14:30:40;19.00;99.90
23124;DHT22;11731;48.592;8.858;2022-09-25T14:33:28;18.70;99.80
23124;DHT22;11731;48.592;8.858;2022-09-25T14:36:05;18.30;99.90
23124;DHT22;11731;48.592;8.858;2022-09-25T14:39:01;18.30;99.90
23124;DHT22;11731;48.592;8.858;2022-09-25T14:41:52;18.20;99.90
23124;DHT22;11731;48.592;8.858;2022-09-25T14:44:40;18.10;99.90
23124;DHT22;11731;48.592;8.858;2022-09-25T14:47:14;17.80;99.90
23124;DHT22;11731;48.592;8.858;2022-09-25T14:49:48;17.30;99.90
23124;DHT22;11731;48.592;8.858;2022-09-25T14:52:19;17.30;99.90
23124;DHT22;11731;48.592;8.858;2022-09-25T14:54:49;17.60;99.90
23124;DHT22;11731;48.592;8.858;2022-09-25T14:57:23;17.80;99.90
23124;DHT22;11731;48.592;8.858;2022-09-25T14:59:55;17.90;99.90
23124;DHT22;11731;48.592;8.858;2022-09-25T15:02:26;18.00;99.90
23124;DHT22;11731;48.592;8.858;2022-09-25T15:04:56;17.90;99.90
23124;DHT22;11731;48.592;8.858;2022-09-25T15:07:24;17.90;99.90
23124;DHT22;11731;48.592;8.858;2022-09-25T15:09:53;17.70;99.90
23124;DHT22;11731;48.592;8.858;2022-09-25T15:12:24;17.90;99.90
23124;DHT22;11731;48.592;8.858;2022-09-25T15:15:01;17.80;99.90
23124;DHT22;11731;48.592;8.858;2022-09-25T15:17:29;17.80;99.90
23124;DHT22;11731;48.592;8.858;2022-09-25T15:19:57;17.30;99.90
23124;DHT22;11731;48.592;8.858;2022-09-25T15:22:30;17.40;99.90
23124;DHT22;11731;48.592;8.858;2022-09-25T15:24:59;17.50;99.90
23124;DHT22;11731;48.592;8.858;2022-09-25T15:27:28;17.60;99.90
23124;DHT22;11731;48.592;8.858;2022-09-25T15:29:56;17.80;99.90
23124;DHT22;11731;48.592;8.858;2022-09-25T15:32:28;18.10;99.90
23124;DHT22;11731;48.592;8.858;2022-09-25T15:35:15;18.10;99.90
23124;DHT22;11731;48.592;8.858;2022-09-25T15:37:44;18.10;99.90
23124;DHT22;11731;48.592;8.858;2022-09-25T15:40:19;17.90;99.90
23124;DHT22;11731;48.592;8.858;2022-09-25T15:42:48;18.40;99.90
23124;DHT22;11731;48.592;8.858;2022-09-25T15:45:35;18.70;99.90
23124;DHT22;11731;48.592;8.858;2022-09-25T15:48:18;18.90;99.90
23124;DHT22;11731;48.592;8.858;2022-09-25T15:50:47;18.20;99.90
23124;DHT22;11731;48.592;8.858;2022-09-25T15:53:23;18.00;99.90
23124;DHT22;11731;48.592;8.858;2022-09-25T15:56:10;18.10;99.90
23124;DHT22;11731;48.592;8.858;2022-09-25T15:58:44;18.20;99.90
23124;DHT22;11731;48.592;8.858;2022-09-25T16:01:13;18.20;99.90
23124;DHT22;11731;48.592;8.858;2022-09-25T16:04:00;17.70;99.90
23124;DHT22;11731;48.592;8.858;2022-09-25T16:06:45;17.80;99.90
23124;DHT22;11731;48.592;8.858;2022-09-25T16:09:32;18.10;99.90
23124;DHT22;11731;48.592;8.858;2022-09-25T16:12:19;17.80;99.90
23124;DHT22;11731;48.592;8.858;2022-09-25T16:14:46;17.40;99.90
23124;DHT22;11731;48.592;8.858;2022-09-25T16:17:19;17.30;99.90
23124;DHT22;11731;48.592;8.858;2022-09-25T16:20:03;17.00;99.90
23124;DHT22;11731;48.592;8.858;2022-09-25T16:22:37;17.50;99.90
23124;DHT22;11731;48.592;8.858;2022-09-25T16:25:14;17.00;99.90
23124;DHT22;11731;48.592;8.858;2022-09-25T16:27:43;16.70;99.90
23124;DHT22;11731;48.592;8.858;2022-09-25T16:30:15;16.40;99.90
23124;DHT22;11731;48.592;8.858;2022-09-25T16:32:45;16.10;99.90